createdAt,value
2023-02-26T00:01:19.275Z,82.70
2023-02-26T00:03:49.736Z,95.45
2023-02-26T00:06:16.143Z,89.10
2023-02-26T00:08:42.541Z,113.05
2023-02-26T00:11:10.194Z,188.13
2023-02-26T00:13:38.213Z,125.40
2023-02-26T00:16:13.916Z,107.57
2023-02-26T00:18:40.576Z,86.65
2023-02-26T00:21:07.421Z,119.72
2023-02-26T00:23:33.953Z,99.82
2023-02-26T00:26:00.244Z,84.25
2023-02-26T00:28:26.861Z,74.07
2023-02-26T00:30:53.654Z,95.20
2023-02-26T00:33:20.318Z,70.82
2023-02-26T00:35:46.785Z,29.88
2023-02-26T00:38:17.214Z,27.08
2023-02-26T00:40:46.246Z,13.18
2023-02-26T00:43:18.759Z,13.55
2023-02-26T00:46:03.591Z,13.63
2023-02-26T00:48:50.046Z,16.98
2023-02-26T00:51:30.988Z,12.80
2023-02-26T00:54:24.734Z,11.38
2023-02-26T00:56:53.039Z,14.70
2023-02-26T00:59:20.824Z,98.05
2023-02-26T01:01:48.580Z,43.40
2023-02-26T01:04:18.017Z,28.95
2023-02-26T01:06:50.016Z,18.08
2023-02-26T01:09:37.354Z,15.43
2023-02-26T01:12:10.897Z,48.28
2023-02-26T01:14:38.767Z,20.25
2023-02-26T01:17:17.020Z,14.07
2023-02-26T01:19:46.309Z,8.73
2023-02-26T01:22:19.538Z,13.38
2023-02-26T01:24:49.390Z,10.88
2023-02-26T01:27:15.937Z,11.20
2023-02-26T01:29:43.308Z,11.93
2023-02-26T01:32:23.140Z,13.40
2023-02-26T01:34:57.140Z,18.10
2023-02-26T01:37:48.348Z,17.67
2023-02-26T01:40:30.671Z,15.43
2023-02-26T01:43:03.429Z,14.75
2023-02-26T01:45:35.106Z,13.75
2023-02-26T01:48:11.815Z,10.52
2023-02-26T01:50:39.373Z,9.85
2023-02-26T01:53:25.517Z,10.15
2023-02-26T01:55:58.397Z,11.38
2023-02-26T01:58:27.528Z,8.95
2023-02-26T02:00:53.946Z,10.88
2023-02-26T02:03:22.358Z,12.48
2023-02-26T02:05:53.987Z,12.50
2023-02-26T02:08:21.763Z,19.00
2023-02-26T02:10:52.285Z,12.15
2023-02-26T02:13:35.113Z,15.02
2023-02-26T02:16:12.407Z,10.02
2023-02-26T02:19:06.501Z,12.98
2023-02-26T02:21:50.294Z,42.97
2023-02-26T02:24:32.296Z,21.02
2023-02-26T02:26:59.467Z,21.85
2023-02-26T02:29:25.924Z,21.80
2023-02-26T02:32:18.429Z,15.60
2023-02-26T02:34:54.408Z,9.57
2023-02-26T02:37:26.266Z,9.80
2023-02-26T02:40:01.315Z,9.85
2023-02-26T02:42:35.625Z,6.13
2023-02-26T02:45:08.525Z,6.97
2023-02-26T02:47:39.473Z,7.32
2023-02-26T02:50:46.656Z,7.78
2023-02-26T02:53:23.120Z,4.28
2023-02-26T02:56:14.564Z,4.95
2023-02-26T03:01:14.362Z,6.25
2023-02-26T03:04:01.605Z,7.37
2023-02-26T03:06:30.546Z,5.25
2023-02-26T03:08:58.261Z,6.13
2023-02-26T03:11:24.590Z,7.68
2023-02-26T03:13:53.285Z,5.90
2023-02-26T03:16:40.496Z,5.63
2023-02-26T03:19:16.351Z,8.38
2023-02-26T03:22:01.518Z,6.07
2023-02-26T03:24:56.469Z,5.68
2023-02-26T03:27:31.412Z,7.30
2023-02-26T03:30:05.983Z,15.05
2023-02-26T03:32:46.332Z,11.15
2023-02-26T03:35:22.804Z,6.97
2023-02-26T03:37:53.052Z,5.93
2023-02-26T03:40:26.897Z,8.18
2023-02-26T03:43:03.348Z,7.85
2023-02-26T03:45:35.540Z,4.38
2023-02-26T03:48:05.674Z,8.38
2023-02-26T03:50:39.191Z,4.47
2023-02-26T03:53:32.977Z,5.00
2023-02-26T03:56:19.420Z,4.10
2023-02-26T03:59:11.698Z,4.10
2023-02-26T04:02:03.387Z,8.88
2023-02-26T04:04:42.391Z,5.03
2023-02-26T04:07:14.468Z,3.33
2023-02-26T04:09:42.429Z,7.78
2023-02-26T04:12:09.145Z,5.68
2023-02-26T04:14:38.503Z,5.50
2023-02-26T04:17:05.491Z,5.85
2023-02-26T04:19:32.875Z,6.80
2023-02-26T04:21:59.416Z,5.70
2023-02-26T04:24:25.718Z,3.63
2023-02-26T04:26:53.499Z,6.05
2023-02-26T04:29:19.841Z,5.10
2023-02-26T04:31:46.519Z,5.63
2023-02-26T04:34:13.972Z,4.32
2023-02-26T04:36:40.416Z,4.50
2023-02-26T04:39:07.059Z,9.45
2023-02-26T04:41:34.236Z,4.80
2023-02-26T04:44:02.031Z,5.82
2023-02-26T04:46:31.525Z,5.85
2023-02-26T04:48:58.201Z,2.60
2023-02-26T04:51:25.283Z,6.40
2023-02-26T04:53:52.418Z,8.73
2023-02-26T04:56:19.378Z,5.25
2023-02-26T04:58:46.146Z,7.63
2023-02-26T05:01:18.981Z,4.22
2023-02-26T05:03:45.292Z,4.45
2023-02-26T05:06:11.659Z,5.55
2023-02-26T05:08:42.016Z,4.35
2023-02-26T05:11:10.374Z,6.03
2023-02-26T05:13:37.622Z,3.67
2023-02-26T05:16:04.403Z,5.25
2023-02-26T05:18:30.956Z,3.63
2023-02-26T05:20:57.962Z,3.63
2023-02-26T05:23:24.965Z,8.48
2023-02-26T05:25:51.489Z,2.97
2023-02-26T05:28:18.559Z,3.45
2023-02-26T05:30:44.940Z,8.00
2023-02-26T05:33:11.651Z,5.57
2023-02-26T05:35:38.067Z,6.72
2023-02-26T05:38:04.621Z,10.00
2023-02-26T05:40:30.911Z,4.32
2023-02-26T05:42:57.270Z,7.05
2023-02-26T05:45:23.594Z,5.88
2023-02-26T05:47:49.940Z,8.35
2023-02-26T05:50:16.286Z,7.13
2023-02-26T05:52:42.603Z,8.07
2023-02-26T05:55:09.540Z,7.65
2023-02-26T05:57:35.833Z,5.43
2023-02-26T06:00:02.548Z,5.78
2023-02-26T06:02:38.995Z,6.60
2023-02-26T06:05:05.999Z,8.45
2023-02-26T06:07:32.298Z,5.85
2023-02-26T06:09:58.686Z,8.82
2023-02-26T06:12:25.174Z,6.70
2023-02-26T06:14:51.500Z,5.97
2023-02-26T06:17:17.817Z,4.72
2023-02-26T06:19:45.282Z,6.93
2023-02-26T06:22:11.576Z,5.57
2023-02-26T06:24:37.852Z,4.90
2023-02-26T06:27:04.165Z,8.77
2023-02-26T06:29:30.471Z,7.38
2023-02-26T06:31:57.094Z,5.40
2023-02-26T06:34:23.732Z,6.43
2023-02-26T06:36:50.035Z,5.60
2023-02-26T06:39:16.365Z,5.32
2023-02-26T06:41:42.650Z,9.93
2023-02-26T06:44:10.348Z,9.60
2023-02-26T06:46:36.808Z,3.58
2023-02-26T06:49:03.473Z,6.22
2023-02-26T06:51:30.779Z,3.85
2023-02-26T06:53:57.407Z,4.93
2023-02-26T06:56:24.405Z,7.07
2023-02-26T06:58:51.303Z,6.65
2023-02-26T07:01:17.773Z,7.18
2023-02-26T07:03:44.236Z,4.25
2023-02-26T07:06:38.305Z,5.65
2023-02-26T07:08:59.075Z,7.10
2023-02-26T07:11:25.695Z,7.38
2023-02-26T07:13:52.106Z,9.10
2023-02-26T07:16:18.649Z,6.38
2023-02-26T07:18:45.171Z,4.05
2023-02-26T07:21:11.506Z,5.28
2023-02-26T07:23:37.834Z,6.35
2023-02-26T07:26:04.347Z,5.03
2023-02-26T07:28:30.671Z,5.80
2023-02-26T07:30:57.887Z,5.32
2023-02-26T07:33:24.955Z,5.50
2023-02-26T07:35:51.271Z,8.23
2023-02-26T07:38:19.469Z,5.78
2023-02-26T07:40:46.659Z,10.68
2023-02-26T07:43:13.187Z,21.23
2023-02-26T07:45:39.492Z,25.08
2023-02-26T07:48:05.839Z,21.35
2023-02-26T07:50:33.471Z,15.88
2023-02-26T07:52:59.806Z,11.70
2023-02-26T07:55:27.451Z,10.27
2023-02-26T07:57:53.763Z,9.85
2023-02-26T08:00:20.394Z,8.70
2023-02-26T08:02:47.628Z,5.45
2023-02-26T08:05:13.968Z,5.53
2023-02-26T08:07:40.297Z,7.53
2023-02-26T08:10:07.255Z,8.63
2023-02-26T08:12:33.636Z,11.00
2023-02-26T08:14:59.947Z,8.43
2023-02-26T08:17:26.272Z,9.10
2023-02-26T08:19:53.595Z,8.43
2023-02-26T08:22:20.859Z,10.93
2023-02-26T08:24:47.286Z,8.70
2023-02-26T08:27:13.758Z,25.23
2023-02-26T08:29:40.120Z,11.75
2023-02-26T08:32:06.651Z,14.95
2023-02-26T08:34:33.001Z,8.20
2023-02-26T08:36:59.333Z,10.95
2023-02-26T08:39:25.664Z,9.45
2023-02-26T08:41:51.985Z,8.98
2023-02-26T08:44:18.451Z,8.13
2023-02-26T08:46:44.834Z,7.15
2023-02-26T08:49:11.227Z,7.85
2023-02-26T08:51:37.548Z,5.85
2023-02-26T08:54:03.874Z,6.60
2023-02-26T08:56:31.652Z,4.88
2023-02-26T08:58:57.990Z,3.67
2023-02-26T09:01:24.643Z,3.05
2023-02-26T09:03:51.153Z,7.05
2023-02-26T09:06:17.492Z,3.20
2023-02-26T09:08:43.839Z,4.57
2023-02-26T09:11:10.405Z,3.35
2023-02-26T09:13:36.738Z,2.88
2023-02-26T09:16:03.358Z,6.32
2023-02-26T09:18:29.733Z,8.45
2023-02-26T09:20:56.161Z,5.53
2023-02-26T09:23:22.437Z,7.40
2023-02-26T09:25:54.349Z,6.28
2023-02-26T09:28:22.097Z,4.03
2023-02-26T09:30:52.733Z,3.25
2023-02-26T09:33:19.180Z,5.43
2023-02-26T09:35:48.303Z,3.72
2023-02-26T09:38:14.758Z,3.08
2023-02-26T09:40:47.963Z,3.42
2023-02-26T09:43:47.665Z,5.28
2023-02-26T09:46:29.428Z,3.53
2023-02-26T09:49:06.642Z,4.32
2023-02-26T09:51:35.763Z,7.82
2023-02-26T09:54:24.625Z,7.72
2023-02-26T09:56:53.798Z,4.93
2023-02-26T09:59:20.156Z,3.13
2023-02-26T10:02:13.950Z,4.57
2023-02-26T10:04:49.750Z,3.95
2023-02-26T10:07:25.106Z,3.03
2023-02-26T10:10:02.810Z,2.13
2023-02-26T10:12:33.515Z,2.20
2023-02-26T10:15:13.328Z,1.65
2023-02-26T10:17:54.528Z,4.22
2023-02-26T10:20:36.535Z,5.63
2023-02-26T10:23:07.156Z,13.38
2023-02-26T10:25:40.902Z,9.73
2023-02-26T10:28:41.647Z,6.53
2023-02-26T10:31:30.078Z,4.53
2023-02-26T10:34:08.278Z,2.60
2023-02-26T10:36:46.253Z,4.28
2023-02-26T10:39:30.897Z,4.18
2023-02-26T10:42:01.719Z,1.95
2023-02-26T10:44:37.356Z,5.18
2023-02-26T10:47:16.651Z,2.88
2023-02-26T10:50:03.456Z,3.92
2023-02-26T10:52:33.431Z,3.25
2023-02-26T10:55:27.612Z,5.93
2023-02-26T10:58:11.105Z,3.63
2023-02-26T11:00:39.475Z,2.58
2023-02-26T11:03:08.860Z,4.00
2023-02-26T11:05:35.488Z,3.53
2023-02-26T11:08:20.803Z,4.85
2023-02-26T11:10:56.087Z,4.03
2023-02-26T11:13:27.542Z,3.30
2023-02-26T11:15:57.165Z,2.10
2023-02-26T11:18:28.037Z,6.90
2023-02-26T11:20:57.897Z,5.22
2023-02-26T11:23:29.288Z,4.30
2023-02-26T11:26:14.628Z,6.95
2023-02-26T11:28:45.124Z,6.82
2023-02-26T11:31:15.059Z,3.30
2023-02-26T11:33:49.256Z,3.75
2023-02-26T11:36:19.539Z,3.03
2023-02-26T11:38:53.568Z,4.67
2023-02-26T11:41:19.898Z,4.20
2023-02-26T11:43:49.438Z,3.72
2023-02-26T11:46:15.960Z,4.75
2023-02-26T11:48:47.074Z,4.88
2023-02-26T11:51:25.580Z,20.55
2023-02-26T11:54:01.374Z,7.82
2023-02-26T11:56:41.588Z,5.03
2023-02-26T11:59:18.373Z,2.38
2023-02-26T12:01:44.741Z,8.48
2023-02-26T12:04:13.407Z,7.40
2023-02-26T12:06:39.954Z,6.90
2023-02-26T12:09:13.290Z,4.97
2023-02-26T12:11:51.909Z,2.33
2023-02-26T12:14:39.120Z,3.35
2023-02-26T12:17:17.394Z,4.07
2023-02-26T12:19:58.938Z,5.20
2023-02-26T12:23:04.635Z,4.60
2023-02-26T12:26:16.019Z,11.95
2023-02-26T12:28:51.861Z,7.85
2023-02-26T12:31:27.506Z,4.60
2023-02-26T12:34:20.137Z,5.78
2023-02-26T12:36:55.493Z,6.95
2023-02-26T12:39:40.627Z,4.38
2023-02-26T12:42:16.040Z,6.60
2023-02-26T12:45:10.678Z,6.20
2023-02-26T12:48:14.542Z,4.53
2023-02-26T12:51:02.542Z,4.55
2023-02-26T12:54:05.385Z,5.50
2023-02-26T12:56:52.389Z,4.65
2023-02-26T12:59:42.774Z,6.35
2023-02-26T13:02:52.574Z,4.32
2023-02-26T13:05:21.972Z,5.30
2023-02-26T13:07:55.251Z,8.63
2023-02-26T13:10:28.064Z,10.90
2023-02-26T13:13:15.838Z,6.85
2023-02-26T13:16:17.609Z,4.20
2023-02-26T13:18:52.472Z,7.82
2023-02-26T13:21:25.277Z,13.50
2023-02-26T13:24:00.481Z,27.45
2023-02-26T13:26:28.937Z,26.63
2023-02-26T13:29:11.745Z,17.58
2023-02-26T13:31:50.850Z,15.27
2023-02-26T13:34:33.529Z,5.72
2023-02-26T13:37:00.905Z,21.63
2023-02-26T13:39:49.524Z,11.93
2023-02-26T13:42:38.313Z,7.50
2023-02-26T13:45:34.546Z,4.32
2023-02-26T13:48:25.440Z,4.90
2023-02-26T13:51:19.123Z,5.47
2023-02-26T13:53:53.638Z,3.45
2023-02-26T13:56:46.962Z,5.00
2023-02-26T13:59:13.524Z,5.47
2023-02-26T14:02:03.740Z,4.60
2023-02-26T14:04:32.617Z,4.57
2023-02-26T14:07:10.874Z,5.43
2023-02-26T14:09:45.027Z,8.88
2023-02-26T14:12:15.599Z,10.45
2023-02-26T14:14:44.154Z,17.30
2023-02-26T14:17:10.522Z,11.73
2023-02-26T14:20:08.402Z,16.17
2023-02-26T14:22:41.682Z,9.10
2023-02-26T14:25:32.943Z,13.40
2023-02-26T14:28:18.022Z,12.93
2023-02-26T14:30:49.741Z,15.63
2023-02-26T14:33:19.612Z,14.88
2023-02-26T14:35:51.888Z,7.50
2023-02-26T14:38:30.691Z,6.18
2023-02-26T14:41:03.034Z,3.75
2023-02-26T14:43:42.838Z,5.75
2023-02-26T14:46:11.112Z,7.35
2023-02-26T14:48:39.277Z,4.25
2023-02-26T14:51:14.850Z,3.20
2023-02-26T14:54:05.987Z,11.00
2023-02-26T14:56:50.628Z,9.52
2023-02-26T14:59:35.620Z,7.78
2023-02-26T15:02:28.068Z,7.38
2023-02-26T15:05:22.584Z,6.07
2023-02-26T15:08:05.493Z,4.55
2023-02-26T15:11:17.230Z,6.13
2023-02-26T15:14:19.070Z,4.10
2023-02-26T15:17:29.973Z,5.28
2023-02-26T15:20:06.205Z,2.40
2023-02-26T15:22:35.948Z,2.05
2023-02-26T15:25:03.315Z,9.43
2023-02-26T15:27:31.959Z,3.47
2023-02-26T15:30:00.483Z,3.10
2023-02-26T15:32:29.744Z,5.10
2023-02-26T15:35:18.838Z,3.53
2023-02-26T15:37:53.596Z,4.03
2023-02-26T15:40:20.319Z,7.95
2023-02-26T15:42:51.897Z,7.63
2023-02-26T15:45:28.165Z,8.20
2023-02-26T15:48:01.685Z,5.85
2023-02-26T15:50:32.078Z,6.03
2023-02-26T15:53:02.728Z,4.10
2023-02-26T15:55:43.239Z,3.42
2023-02-26T15:58:10.185Z,4.45
2023-02-26T16:00:37.315Z,5.85
2023-02-26T16:03:04.439Z,6.90
2023-02-26T16:05:32.060Z,5.97
2023-02-26T16:07:58.592Z,6.40
2023-02-26T16:10:28.104Z,10.90
2023-02-26T16:12:55.400Z,6.07
2023-02-26T16:15:29.980Z,7.53
2023-02-26T16:17:57.419Z,8.07
2023-02-26T16:20:27.644Z,4.45
2023-02-26T16:22:56.467Z,9.50
2023-02-26T16:25:26.314Z,6.85
2023-02-26T16:28:00.667Z,7.35
2023-02-26T16:30:36.246Z,6.55
2023-02-26T16:33:04.485Z,6.03
2023-02-26T16:35:38.797Z,5.70
2023-02-26T16:38:19.002Z,13.43
2023-02-26T16:40:46.408Z,48.05
2023-02-26T16:43:35.313Z,15.82
2023-02-26T16:46:03.983Z,14.80
2023-02-26T16:48:37.921Z,9.70
2023-02-26T16:51:20.109Z,9.35
2023-02-26T16:53:50.791Z,6.72
2023-02-26T16:56:20.407Z,6.00
2023-02-26T16:58:54.511Z,4.60
2023-02-26T17:01:22.933Z,4.70
2023-02-26T17:04:07.736Z,6.60
2023-02-26T17:06:39.682Z,12.50
2023-02-26T17:09:10.145Z,5.20
2023-02-26T17:11:40.074Z,8.68
2023-02-26T17:14:26.944Z,6.82
2023-02-26T17:16:53.432Z,18.45
2023-02-26T17:19:20.112Z,13.20
2023-02-26T17:21:54.205Z,21.02
2023-02-26T17:24:26.418Z,3.35
2023-02-26T17:26:52.831Z,4.25
2023-02-26T17:29:26.593Z,2.28
2023-02-26T17:31:53.526Z,3.28
2023-02-26T17:34:21.312Z,4.55
2023-02-26T17:36:48.728Z,3.47
2023-02-26T17:39:15.876Z,5.18
2023-02-26T17:41:44.397Z,6.32
2023-02-26T17:44:11.247Z,3.08
2023-02-26T17:46:37.728Z,6.70
2023-02-26T17:49:04.166Z,5.82
2023-02-26T17:51:30.553Z,4.80
2023-02-26T17:53:56.885Z,6.57
2023-02-26T17:56:29.107Z,3.45
2023-02-26T17:58:56.962Z,3.83
2023-02-26T18:01:24.282Z,7.20
2023-02-26T18:03:50.771Z,5.95
2023-02-26T18:06:17.338Z,9.30
2023-02-26T18:08:44.596Z,10.48
2023-02-26T18:11:12.720Z,10.07
2023-02-26T18:13:39.365Z,8.30
2023-02-26T18:16:06.930Z,8.95
2023-02-26T18:18:33.330Z,7.07
2023-02-26T18:21:00.103Z,6.15
2023-02-26T18:23:26.471Z,6.97
2023-02-26T18:25:54.771Z,10.40
2023-02-26T18:28:24.304Z,9.65
2023-02-26T18:30:52.202Z,9.60
2023-02-26T18:33:19.614Z,8.00
2023-02-26T18:35:49.952Z,8.20
2023-02-26T18:38:18.322Z,7.00
2023-02-26T18:40:45.620Z,6.43
2023-02-26T18:43:12.979Z,8.82
2023-02-26T18:45:40.730Z,9.55
2023-02-26T18:48:07.576Z,7.65
2023-02-26T18:50:33.963Z,8.25
2023-02-26T18:53:00.275Z,15.55
2023-02-26T18:55:26.768Z,11.10
2023-02-26T18:57:53.245Z,11.35
2023-02-26T19:00:21.184Z,12.13
2023-02-26T19:02:47.716Z,14.93
2023-02-26T19:05:16.228Z,16.30
2023-02-26T19:07:42.749Z,14.63
2023-02-26T19:10:13.337Z,42.58
2023-02-26T19:12:39.877Z,22.70
2023-02-26T19:15:06.958Z,12.95
2023-02-26T19:17:33.276Z,13.60
2023-02-26T19:19:59.571Z,80.22
2023-02-26T19:22:25.946Z,109.30
2023-02-26T19:24:53.135Z,96.90
2023-02-26T19:27:19.440Z,121.95
2023-02-26T19:29:45.811Z,208.07
2023-02-26T19:32:12.521Z,106.03
2023-02-26T19:34:38.912Z,55.17
2023-02-26T19:37:05.245Z,45.80
2023-02-26T19:39:31.910Z,31.38
2023-02-26T19:41:58.249Z,36.47
2023-02-26T19:44:27.359Z,54.83
2023-02-26T19:46:53.880Z,45.97
2023-02-26T19:49:20.274Z,35.05
2023-02-26T19:51:46.669Z,25.55
2023-02-26T19:54:14.031Z,17.08
2023-02-26T19:56:42.172Z,19.45
2023-02-26T19:59:08.821Z,26.75
2023-02-26T20:01:35.288Z,24.45
2023-02-26T20:04:01.911Z,12.88
2023-02-26T20:06:28.486Z,11.45
2023-02-26T20:08:54.956Z,11.45
2023-02-26T20:11:21.399Z,15.52
2023-02-26T20:13:47.733Z,30.00
2023-02-26T20:16:14.175Z,48.40
2023-02-26T20:18:40.545Z,40.63
2023-02-26T20:21:09.611Z,31.45
2023-02-26T20:23:37.939Z,28.35
2023-02-26T20:26:13.785Z,43.67
2023-02-26T20:28:41.681Z,165.63
2023-02-26T20:31:08.520Z,130.23
2023-02-26T20:33:37.126Z,113.80
2023-02-26T20:36:03.931Z,41.47
2023-02-26T20:38:30.377Z,29.55
2023-02-26T20:40:56.830Z,18.95
2023-02-26T20:43:24.829Z,6.68
2023-02-26T20:45:51.833Z,9.15
2023-02-26T20:48:18.187Z,8.85
2023-02-26T20:50:44.495Z,12.38
2023-02-26T20:53:10.803Z,12.88
2023-02-26T20:55:37.180Z,8.25
2023-02-26T20:58:07.338Z,22.20
2023-02-26T21:00:33.729Z,20.13
2023-02-26T21:03:00.119Z,18.27
2023-02-26T21:05:26.495Z,16.33
2023-02-26T21:07:52.825Z,6.32
2023-02-26T21:10:19.814Z,7.90
2023-02-26T21:12:46.745Z,6.40
2023-02-26T21:15:13.622Z,12.10
2023-02-26T21:17:42.257Z,12.40
2023-02-26T21:20:11.855Z,12.07
2023-02-26T21:22:39.129Z,12.65
2023-02-26T21:25:06.715Z,13.88
2023-02-26T21:27:33.808Z,15.32
2023-02-26T21:30:00.150Z,24.95
2023-02-26T21:32:26.651Z,20.73
2023-02-26T21:34:53.044Z,30.20
2023-02-26T21:37:19.365Z,16.50
2023-02-26T21:39:46.564Z,36.30
2023-02-26T21:42:12.983Z,26.95
2023-02-26T21:44:40.112Z,29.98
2023-02-26T21:47:06.680Z,43.30
2023-02-26T21:49:33.004Z,90.65
2023-02-26T21:52:01.034Z,85.93
2023-02-26T21:54:28.112Z,68.10
2023-02-26T21:56:54.581Z,37.75
2023-02-26T21:59:23.077Z,61.22
2023-02-26T22:01:50.583Z,21.75
2023-02-26T22:04:17.635Z,15.93
2023-02-26T22:06:43.996Z,23.98
2023-02-26T22:09:10.884Z,18.50
2023-02-26T22:11:37.286Z,12.95
2023-02-26T22:14:03.692Z,38.13
2023-02-26T22:16:30.037Z,54.42
2023-02-26T22:18:56.350Z,44.28
2023-02-26T22:21:24.018Z,62.85
2023-02-26T22:23:50.493Z,86.85
2023-02-26T22:26:17.193Z,35.58
2023-02-26T22:28:43.478Z,43.38
2023-02-26T22:31:10.177Z,51.65
2023-02-26T22:33:36.517Z,28.85
2023-02-26T22:36:02.912Z,24.55
2023-02-26T22:38:29.266Z,29.88
2023-02-26T22:40:55.549Z,24.35
2023-02-26T22:43:22.134Z,18.10
2023-02-26T22:45:50.222Z,17.80
2023-02-26T22:48:17.509Z,21.48
2023-02-26T22:50:44.146Z,25.63
2023-02-26T22:53:10.540Z,18.73
2023-02-26T22:55:36.841Z,14.23
2023-02-26T22:58:03.516Z,12.30
2023-02-26T23:00:30.065Z,19.58
2023-02-26T23:02:56.391Z,11.32
2023-02-26T23:05:22.822Z,10.35
2023-02-26T23:07:49.176Z,10.05
2023-02-26T23:10:17.739Z,9.95
2023-02-26T23:12:44.126Z,9.13
2023-02-26T23:15:11.478Z,15.38
2023-02-26T23:17:37.828Z,18.92
2023-02-26T23:20:09.862Z,12.60
2023-02-26T23:22:37.235Z,8.15
2023-02-26T23:25:03.815Z,8.80
2023-02-26T23:27:30.130Z,12.13
2023-02-26T23:29:56.433Z,10.45
2023-02-26T23:32:22.758Z,13.75
2023-02-26T23:34:49.072Z,9.00
2023-02-26T23:37:15.483Z,8.18
2023-02-26T23:39:41.817Z,9.88
2023-02-26T23:42:08.310Z,9.15
2023-02-26T23:44:34.612Z,9.02
2023-02-26T23:47:00.879Z,7.72
2023-02-26T23:49:27.155Z,9.48
2023-02-26T23:51:53.501Z,14.50
2023-02-26T23:54:19.785Z,10.85
2023-02-26T23:56:47.401Z,13.95
2023-02-26T23:59:13.903Z,9.48
